createdAt,value
2023-02-25T00:02:56.806Z,11.00
2023-02-25T00:06:00.108Z,16.00
2023-02-25T00:09:03.780Z,10.00
2023-02-25T00:12:08.936Z,9.33
2023-02-25T00:15:13.608Z,10.20
2023-02-25T00:18:16.858Z,11.00
2023-02-25T00:21:20.165Z,9.40
2023-02-25T00:24:23.456Z,10.00
2023-02-25T00:27:29.893Z,10.40
2023-02-25T00:30:33.536Z,8.60
2023-02-25T00:33:37.867Z,8.60
2023-02-25T00:36:41.309Z,10.00
2023-02-25T00:39:44.964Z,10.00
2023-02-25T00:42:50.669Z,11.00
2023-02-25T00:45:56.893Z,10.00
2023-02-25T00:49:32.452Z,9.00
2023-02-25T00:52:37.678Z,10.75
2023-02-25T00:55:40.976Z,11.00
2023-02-25T00:58:47.467Z,10.00
2023-02-25T01:01:50.806Z,11.75
2023-02-25T01:04:54.219Z,11.60
2023-02-25T01:07:57.669Z,12.40
2023-02-25T01:11:00.994Z,9.60
2023-02-25T01:14:09.019Z,11.00
2023-02-25T01:17:13.155Z,10.20
2023-02-25T01:20:19.920Z,11.00
2023-02-25T01:23:23.778Z,13.00
2023-02-25T01:26:28.109Z,13.25
2023-02-25T01:29:35.157Z,16.00
2023-02-25T01:32:38.785Z,13.00
2023-02-25T01:35:42.420Z,9.60
2023-02-25T01:38:45.706Z,11.80
2023-02-25T01:41:51.216Z,12.20
2023-02-25T01:45:25.117Z,13.80
2023-02-25T01:48:32.641Z,13.50
2023-02-25T01:51:37.753Z,14.40
2023-02-25T01:54:45.236Z,13.20
2023-02-25T01:57:49.375Z,12.40
2023-02-25T02:00:55.735Z,16.75
2023-02-25T02:03:59.194Z,18.40
2023-02-25T02:07:03.299Z,12.80
2023-02-25T02:10:07.315Z,13.00
2023-02-25T02:13:11.944Z,15.00
2023-02-25T02:16:37.134Z,14.00
2023-02-25T02:19:57.182Z,13.00
2023-02-25T02:23:25.851Z,14.00
2023-02-25T02:26:50.344Z,12.50
2023-02-25T02:30:17.051Z,13.40
2023-02-25T02:33:30.825Z,14.40
2023-02-25T02:36:48.187Z,13.00
2023-02-25T02:40:00.493Z,12.00
2023-02-25T02:43:12.741Z,12.80
2023-02-25T02:46:22.556Z,17.00
2023-02-25T02:49:35.436Z,12.80
2023-02-25T02:52:43.939Z,12.80
2023-02-25T02:55:52.240Z,11.00
2023-02-25T02:59:00.515Z,12.00
2023-02-25T03:02:10.830Z,11.50
2023-02-25T03:05:18.741Z,10.00
2023-02-25T03:08:28.267Z,11.00
2023-02-25T03:11:32.205Z,11.75
2023-02-25T03:14:37.664Z,12.60
2023-02-25T03:17:46.704Z,12.50
2023-02-25T03:20:53.353Z,11.00
2023-02-25T03:23:57.502Z,12.00
2023-02-25T03:27:01.520Z,11.00
2023-02-25T03:30:10.096Z,13.00
2023-02-25T03:33:19.970Z,12.50
2023-02-25T03:36:30.000Z,12.00
2023-02-25T03:39:40.312Z,12.60
2023-02-25T03:42:50.711Z,14.00
2023-02-25T03:45:55.623Z,12.40
2023-02-25T03:49:00.753Z,13.00
2023-02-25T03:52:13.800Z,13.00
2023-02-25T03:55:19.699Z,12.00
2023-02-25T03:58:23.075Z,13.50
2023-02-25T04:01:30.499Z,10.60
2023-02-25T04:04:33.977Z,14.00
2023-02-25T04:07:39.214Z,17.00
2023-02-25T04:10:43.702Z,16.00
2023-02-25T04:13:47.709Z,16.40
2023-02-25T04:16:51.933Z,16.20
2023-02-25T04:19:55.167Z,12.00
2023-02-25T04:22:59.942Z,15.40
2023-02-25T04:26:03.572Z,14.25
2023-02-25T04:29:07.129Z,16.60
2023-02-25T04:32:10.907Z,15.33
2023-02-25T04:35:14.601Z,15.00
2023-02-25T04:38:19.288Z,18.00
2023-02-25T04:41:22.942Z,18.75
2023-02-25T04:44:26.297Z,18.20
2023-02-25T04:47:29.550Z,16.00
2023-02-25T04:50:32.878Z,17.00
2023-02-25T04:53:37.953Z,16.00
2023-02-25T04:56:41.388Z,17.00
2023-02-25T04:59:44.638Z,16.00
2023-02-25T05:02:48.591Z,18.25
2023-02-25T05:05:51.855Z,18.00
2023-02-25T05:08:57.893Z,16.80
2023-02-25T05:12:02.023Z,15.00
2023-02-25T05:15:08.601Z,19.00
2023-02-25T05:18:12.366Z,19.00
2023-02-25T05:21:17.186Z,14.60
2023-02-25T05:24:23.795Z,13.00
2023-02-25T05:27:27.466Z,11.00
2023-02-25T05:30:30.721Z,11.00
2023-02-25T05:33:34.069Z,12.40
2023-02-25T05:36:37.349Z,13.00
2023-02-25T05:39:42.116Z,11.00
2023-02-25T05:42:49.473Z,11.40
2023-02-25T05:45:55.802Z,12.00
2023-02-25T05:48:59.093Z,14.00
2023-02-25T05:52:02.602Z,12.20
2023-02-25T05:55:09.793Z,13.60
2023-02-25T05:58:14.308Z,12.20
2023-02-25T06:01:19.564Z,13.40
2023-02-25T06:04:23.334Z,14.00
2023-02-25T06:07:26.688Z,16.00
2023-02-25T06:10:38.438Z,14.20
2023-02-25T06:13:42.691Z,14.00
2023-02-25T06:16:46.072Z,16.40
2023-02-25T06:19:49.450Z,13.00
2023-02-25T06:22:53.198Z,14.25
2023-02-25T06:25:59.162Z,16.20
2023-02-25T06:29:02.665Z,19.00
2023-02-25T06:32:06.033Z,17.50
2023-02-25T06:35:10.290Z,15.00
2023-02-25T06:38:13.546Z,17.00
2023-02-25T06:41:20.761Z,17.00
2023-02-25T06:44:24.327Z,15.00
2023-02-25T06:47:27.596Z,12.60
2023-02-25T06:50:30.867Z,14.00
2023-02-25T06:53:34.181Z,15.00
2023-02-25T06:56:38.844Z,14.40
2023-02-25T06:59:42.118Z,12.00
2023-02-25T07:02:45.443Z,14.80
2023-02-25T07:05:48.761Z,14.80
2023-02-25T07:08:52.272Z,16.40
2023-02-25T07:11:56.919Z,15.40
2023-02-25T07:15:00.604Z,17.20
2023-02-25T07:18:04.241Z,17.60
2023-02-25T07:21:08.075Z,18.00
2023-02-25T07:24:12.080Z,15.75
2023-02-25T07:27:16.940Z,17.50
2023-02-25T07:30:20.575Z,13.60
2023-02-25T07:33:24.135Z,15.00
2023-02-25T07:36:28.644Z,15.00
2023-02-25T07:39:31.961Z,15.00
2023-02-25T07:42:36.816Z,12.60
2023-02-25T07:45:42.672Z,14.00
2023-02-25T07:48:46.061Z,10.00
2023-02-25T07:51:49.329Z,12.80
2023-02-25T07:54:52.660Z,13.80
2023-02-25T07:57:57.305Z,13.00
2023-02-25T08:01:03.561Z,9.20
2023-02-25T08:04:09.186Z,11.60
2023-02-25T08:07:12.552Z,11.00
2023-02-25T08:10:15.883Z,10.00
2023-02-25T08:13:20.652Z,6.00
2023-02-25T08:16:24.314Z,6.00
2023-02-25T08:19:27.678Z,3.20
2023-02-25T08:22:31.360Z,3.40
2023-02-25T08:25:34.696Z,3.00
2023-02-25T08:28:39.794Z,4.00
2023-02-25T08:31:43.242Z,3.00
2023-02-25T08:34:48.740Z,4.00
2023-02-25T08:37:52.318Z,4.00
2023-02-25T08:40:55.521Z,4.00
2023-02-25T08:44:02.041Z,3.60
2023-02-25T08:47:06.889Z,4.60
2023-02-25T08:50:13.239Z,3.60
2023-02-25T08:53:16.550Z,2.25
2023-02-25T08:56:19.789Z,4.00
2023-02-25T08:59:24.528Z,3.60
2023-02-25T09:02:27.846Z,2.00
2023-02-25T09:05:31.402Z,3.40
2023-02-25T09:08:34.664Z,5.00
2023-02-25T09:11:37.962Z,4.00
2023-02-25T09:14:42.617Z,5.00
2023-02-25T09:17:46.204Z,5.00
2023-02-25T09:20:50.969Z,5.00
2023-02-25T09:23:54.300Z,6.00
2023-02-25T09:26:57.544Z,4.00
2023-02-25T09:30:02.205Z,3.20
2023-02-25T09:33:05.691Z,4.00
2023-02-25T09:36:11.319Z,3.67
2023-02-25T09:39:14.937Z,3.80
2023-02-25T09:42:21.642Z,3.00
2023-02-25T09:45:27.445Z,3.40
2023-02-25T09:48:35.314Z,4.00
2023-02-25T09:51:43.062Z,2.33
2023-02-25T09:54:48.765Z,4.00
2023-02-25T09:58:00.660Z,3.00
2023-02-25T10:01:12.744Z,3.00
2023-02-25T10:04:25.373Z,4.00
2023-02-25T10:07:33.624Z,3.00
2023-02-25T10:10:46.842Z,3.40
2023-02-25T10:13:59.422Z,6.00
2023-02-25T10:17:13.880Z,4.00
2023-02-25T10:20:42.058Z,2.60
2023-02-25T10:23:59.186Z,5.25
2023-02-25T10:27:11.463Z,4.00
2023-02-25T10:30:18.565Z,2.00
2023-02-25T10:33:25.464Z,4.00
2023-02-25T10:36:32.643Z,3.00
2023-02-25T10:39:36.219Z,3.50
2023-02-25T10:42:40.163Z,3.60
2023-02-25T10:45:50.627Z,2.20
2023-02-25T10:48:59.558Z,3.00
2023-02-25T10:52:05.702Z,3.40
2023-02-25T10:55:27.419Z,2.50
2023-02-25T10:58:38.021Z,3.00
2023-02-25T11:01:43.636Z,2.00
2023-02-25T11:04:48.792Z,2.00
2023-02-25T11:07:52.597Z,3.80
2023-02-25T11:11:04.992Z,3.00
2023-02-25T11:14:15.615Z,4.00
2023-02-25T11:17:21.904Z,3.00
2023-02-25T11:20:29.120Z,2.00
2023-02-25T11:23:35.996Z,4.40
2023-02-25T11:26:44.243Z,3.00
2023-02-25T11:29:51.280Z,5.00
2023-02-25T11:32:58.043Z,2.00
2023-02-25T11:36:03.904Z,4.00
2023-02-25T11:39:16.698Z,5.00
2023-02-25T11:42:24.619Z,3.00
2023-02-25T11:45:31.135Z,4.00
2023-02-25T11:48:47.195Z,3.60
2023-02-25T11:51:59.749Z,3.40
2023-02-25T11:55:19.362Z,4.00
2023-02-25T11:58:34.365Z,5.00
2023-02-25T12:01:50.436Z,4.80
2023-02-25T12:05:17.693Z,5.00
2023-02-25T12:08:46.586Z,3.00
2023-02-25T12:12:22.502Z,4.00
2023-02-25T12:15:58.128Z,2.50
2023-02-25T12:19:32.977Z,3.60
2023-02-25T12:23:12.319Z,5.00
2023-02-25T12:26:29.359Z,3.80
2023-02-25T12:29:53.535Z,3.40
2023-02-25T12:33:13.695Z,3.80
2023-02-25T12:36:36.408Z,3.00
2023-02-25T12:39:50.704Z,2.80
2023-02-25T12:43:08.010Z,2.00
2023-02-25T12:46:27.554Z,2.60
2023-02-25T12:49:58.602Z,3.75
2023-02-25T12:53:20.234Z,2.00
2023-02-25T12:56:59.436Z,2.50
2023-02-25T13:00:30.154Z,3.75
2023-02-25T13:03:46.551Z,4.60
2023-02-25T13:07:19.525Z,4.00
2023-02-25T13:10:38.296Z,4.33
2023-02-25T13:13:56.033Z,2.33
2023-02-25T13:17:32.325Z,3.00
2023-02-25T13:20:51.280Z,4.00
2023-02-25T13:24:12.724Z,5.50
2023-02-25T13:27:35.025Z,5.00
2023-02-25T13:30:47.730Z,6.60
2023-02-25T13:34:14.417Z,5.00
2023-02-25T13:37:38.867Z,5.80
2023-02-25T13:40:52.034Z,4.00
2023-02-25T13:44:28.180Z,5.00
2023-02-25T13:47:54.397Z,5.75
2023-02-25T13:51:27.455Z,5.00
2023-02-25T13:54:51.021Z,6.40
2023-02-25T13:58:18.218Z,8.00
2023-02-25T14:01:35.135Z,4.20
2023-02-25T14:05:05.958Z,6.75
2023-02-25T14:08:48.776Z,7.00
2023-02-25T14:12:11.583Z,6.00
2023-02-25T14:15:33.757Z,5.00
2023-02-25T14:18:52.356Z,8.00
2023-02-25T14:22:22.433Z,7.40
2023-02-25T14:25:41.486Z,7.00
2023-02-25T14:28:54.240Z,7.00
2023-02-25T14:32:23.121Z,7.00
2023-02-25T14:35:42.623Z,9.75
2023-02-25T14:39:02.271Z,7.67
2023-02-25T14:42:27.077Z,7.50
2023-02-25T14:45:35.755Z,6.00
2023-02-25T14:48:46.443Z,6.75
2023-02-25T14:52:12.868Z,6.40
2023-02-25T14:55:34.909Z,9.25
2023-02-25T14:58:54.894Z,9.00
2023-02-25T15:02:28.706Z,7.50
2023-02-25T15:06:06.827Z,10.00
2023-02-25T15:09:32.694Z,8.00
2023-02-25T15:13:08.936Z,5.20
2023-02-25T15:16:37.719Z,7.00
2023-02-25T15:20:05.486Z,5.00
2023-02-25T15:23:11.940Z,5.75
2023-02-25T15:26:25.791Z,6.20
2023-02-25T15:29:56.520Z,6.00
2023-02-25T15:33:25.032Z,7.00
2023-02-25T15:36:42.353Z,5.50
2023-02-25T15:39:50.925Z,4.00
2023-02-25T15:42:56.249Z,4.40
2023-02-25T15:46:32.995Z,5.00
2023-02-25T15:49:38.930Z,3.75
2023-02-25T15:53:00.034Z,7.00
2023-02-25T15:56:31.876Z,5.00
2023-02-25T15:59:46.229Z,7.00
2023-02-25T16:02:58.497Z,7.40
2023-02-25T16:06:08.061Z,5.00
2023-02-25T16:09:15.501Z,6.00
2023-02-25T16:12:19.673Z,4.00
2023-02-25T16:15:28.879Z,8.40
2023-02-25T16:18:36.850Z,5.20
2023-02-25T16:21:46.827Z,9.00
2023-02-25T16:24:52.476Z,8.75
2023-02-25T16:28:04.970Z,9.00
2023-02-25T16:31:18.547Z,7.60
2023-02-25T16:34:28.526Z,7.25
2023-02-25T16:37:41.733Z,10.25
2023-02-25T16:40:45.980Z,9.20
2023-02-25T16:43:49.452Z,11.00
2023-02-25T16:46:55.164Z,9.50
2023-02-25T16:50:00.275Z,11.00
2023-02-25T16:53:05.567Z,10.40
2023-02-25T16:56:20.121Z,8.60
2023-02-25T16:59:24.615Z,11.00
2023-02-25T17:02:27.851Z,8.00
2023-02-25T17:05:34.205Z,10.00
2023-02-25T17:08:45.830Z,11.00
2023-02-25T17:11:54.866Z,7.75
2023-02-25T17:15:00.718Z,10.60
2023-02-25T17:18:10.874Z,10.60
2023-02-25T17:21:23.749Z,10.50
2023-02-25T17:24:31.962Z,10.00
2023-02-25T17:27:35.702Z,10.40
2023-02-25T17:30:45.705Z,8.00
2023-02-25T17:33:50.901Z,10.75
2023-02-25T17:36:56.721Z,11.00
2023-02-25T17:40:04.447Z,10.80
2023-02-25T17:43:20.546Z,10.25
2023-02-25T17:46:36.287Z,9.00
2023-02-25T17:49:40.510Z,14.00
2023-02-25T17:52:49.428Z,14.00
2023-02-25T17:55:54.179Z,16.00
2023-02-25T17:59:02.598Z,13.80
2023-02-25T18:02:37.173Z,13.40
2023-02-25T18:05:51.316Z,15.60
2023-02-25T18:08:56.228Z,15.40
2023-02-25T18:12:03.144Z,14.00
2023-02-25T18:15:16.291Z,14.00
2023-02-25T18:18:23.813Z,12.00
2023-02-25T18:21:27.511Z,14.00
2023-02-25T18:24:34.574Z,10.80
2023-02-25T18:27:39.363Z,11.00
2023-02-25T18:30:42.752Z,16.00
2023-02-25T18:33:47.232Z,12.60
2023-02-25T18:36:50.603Z,12.00
2023-02-25T18:39:53.906Z,14.00
2023-02-25T18:42:59.838Z,12.00
2023-02-25T18:46:03.979Z,9.50
2023-02-25T18:49:07.424Z,10.40
2023-02-25T18:52:18.440Z,12.00
2023-02-25T18:55:23.571Z,13.00
2023-02-25T18:58:28.220Z,14.00
2023-02-25T19:01:34.728Z,12.00
2023-02-25T19:04:38.204Z,14.00
2023-02-25T19:07:41.520Z,14.40
2023-02-25T19:10:46.130Z,13.00
2023-02-25T19:13:51.548Z,15.00
2023-02-25T19:16:55.644Z,13.00
2023-02-25T19:20:00.916Z,12.00
2023-02-25T19:23:04.617Z,11.00
2023-02-25T19:26:08.021Z,14.00
2023-02-25T19:29:12.888Z,11.60
2023-02-25T19:32:16.751Z,12.60
2023-02-25T19:35:20.041Z,12.75
2023-02-25T19:38:23.368Z,10.00
2023-02-25T19:41:26.726Z,10.00
2023-02-25T19:44:32.748Z,13.75
2023-02-25T19:47:36.542Z,11.00
2023-02-25T19:50:42.447Z,11.00
2023-02-25T19:53:46.302Z,10.00
2023-02-25T19:56:49.858Z,10.80
2023-02-25T19:59:54.469Z,12.00
2023-02-25T20:02:57.859Z,11.40
2023-02-25T20:06:06.877Z,12.33
2023-02-25T20:09:10.936Z,13.20
2023-02-25T20:12:14.201Z,11.40
2023-02-25T20:15:19.239Z,10.50
2023-02-25T20:18:22.510Z,13.25
2023-02-25T20:21:27.069Z,15.00
2023-02-25T20:24:31.221Z,11.25
2023-02-25T20:27:37.061Z,15.40
2023-02-25T20:30:42.932Z,11.60
2023-02-25T20:33:49.038Z,15.00
2023-02-25T20:36:58.031Z,12.75
2023-02-25T20:40:01.772Z,13.40
2023-02-25T20:43:05.433Z,16.60
2023-02-25T20:46:22.522Z,15.00
2023-02-25T20:49:26.598Z,12.00
2023-02-25T20:52:30.342Z,14.33
2023-02-25T20:55:34.397Z,15.80
2023-02-25T20:58:40.606Z,14.00
2023-02-25T21:01:45.406Z,11.60
2023-02-25T21:04:50.507Z,15.40
2023-02-25T21:07:53.838Z,14.40
2023-02-25T21:10:58.974Z,15.00
2023-02-25T21:14:02.349Z,16.40
2023-02-25T21:17:09.710Z,10.40
2023-02-25T21:20:13.643Z,17.00
2023-02-25T21:23:16.985Z,15.00
2023-02-25T21:26:20.355Z,13.60
2023-02-25T21:29:23.699Z,13.00
2023-02-25T21:32:28.299Z,11.00
2023-02-25T21:35:31.614Z,12.25
2023-02-25T21:38:35.376Z,13.50
2023-02-25T21:41:44.280Z,12.50
2023-02-25T21:44:48.048Z,14.00
2023-02-25T21:47:52.799Z,14.80
2023-02-25T21:50:56.317Z,17.00
2023-02-25T21:54:01.368Z,16.25
2023-02-25T21:57:04.873Z,16.00
2023-02-25T22:00:11.253Z,16.20
2023-02-25T22:03:18.599Z,18.00
2023-02-25T22:06:24.133Z,17.60
2023-02-25T22:09:27.903Z,19.00
2023-02-25T22:12:31.244Z,18.00
2023-02-25T22:15:34.816Z,18.00
2023-02-25T22:18:39.644Z,15.50
2023-02-25T22:21:43.192Z,16.00
2023-02-25T22:24:46.479Z,21.40
2023-02-25T22:27:49.696Z,19.80
2023-02-25T22:30:53.339Z,22.20
2023-02-25T22:33:58.626Z,11.80
2023-02-25T22:37:01.930Z,18.80
2023-02-25T22:40:05.740Z,15.00
2023-02-25T22:43:09.008Z,17.50
2023-02-25T22:46:14.815Z,21.00
2023-02-25T22:49:19.514Z,16.00
2023-02-25T22:52:23.163Z,18.75
2023-02-25T22:55:26.453Z,19.00
2023-02-25T22:58:30.190Z,17.25
2023-02-25T23:01:33.648Z,16.00
2023-02-25T23:04:38.313Z,16.00
2023-02-25T23:07:42.484Z,21.00
2023-02-25T23:10:45.818Z,19.20
2023-02-25T23:13:50.791Z,18.40
2023-02-25T23:16:54.131Z,22.00
2023-02-25T23:20:00.383Z,20.60
2023-02-25T23:23:05.213Z,19.60
2023-02-25T23:26:10.054Z,22.00
2023-02-25T23:29:13.889Z,19.00
2023-02-25T23:32:17.200Z,22.20
2023-02-25T23:35:21.863Z,18.00
2023-02-25T23:38:25.576Z,20.67
2023-02-25T23:41:30.145Z,21.00
2023-02-25T23:44:33.942Z,17.75
2023-02-25T23:47:38.436Z,21.00
2023-02-25T23:50:43.361Z,18.00
2023-02-25T23:53:46.835Z,21.40
2023-02-25T23:56:50.712Z,18.00
2023-02-25T23:59:54.012Z,21.20
